sensor_id;sensor_type;location;lat;lon;timestamp;P1;durP1;ratioP1;P2;durP2;ratioP2
22068;SDS011;13887;57.196;-2.100;2022-11-11T00:00:49;13.13;;;12.73;;
22068;SDS011;13887;57.196;-2.100;2022-11-11T00:03:36;12.40;;;12.00;;
22068;SDS011;13887;57.196;-2.100;2022-11-11T00:06:21;13.10;;;12.70;;
22068;SDS011;13887;57.196;-2.100;2022-11-11T00:09:08;12.33;;;11.93;;
22068;SDS011;13887;57.196;-2.100;2022-11-11T00:11:54;12.80;;;12.40;;
22068;SDS011;13887;57.196;-2.100;2022-11-11T00:14:39;12.90;;;12.50;;
22068;SDS011;13887;57.196;-2.100;2022-11-11T00:17:24;12.60;;;12.20;;
22068;SDS011;13887;57.196;-2.100;2022-11-11T00:20:29;12.57;;;12.17;;
22068;SDS011;13887;57.196;-2.100;2022-11-11T00:23:33;13.20;;;12.80;;
22068;SDS011;13887;57.196;-2.100;2022-11-11T00:26:37;12.73;;;12.33;;
22068;SDS011;13887;57.196;-2.100;2022-11-11T00:29:24;12.87;;;12.47;;
22068;SDS011;13887;57.196;-2.100;2022-11-11T00:32:10;12.73;;;12.33;;
22068;SDS011;13887;57.196;-2.100;2022-11-11T00:35:07;12.73;;;12.33;;
22068;SDS011;13887;57.196;-2.100;2022-11-11T00:38:12;12.10;;;11.70;;
22068;SDS011;13887;57.196;-2.100;2022-11-11T00:41:31;12.60;;;12.20;;
22068;SDS011;13887;57.196;-2.100;2022-11-11T00:44:16;12.57;;;12.17;;
22068;SDS011;13887;57.196;-2.100;2022-11-11T00:47:02;12.80;;;12.40;;
22068;SDS011;13887;57.196;-2.100;2022-11-11T00:50:10;12.30;;;11.90;;
22068;SDS011;13887;57.196;-2.100;2022-11-11T00:53:24;12.50;;;12.10;;
22068;SDS011;13887;57.196;-2.100;2022-11-11T00:56:11;12.60;;;12.20;;
22068;SDS011;13887;57.196;-2.100;2022-11-11T00:58:57;12.57;;;12.17;;
22068;SDS011;13887;57.196;-2.100;2022-11-11T01:01:42;12.63;;;12.23;;
22068;SDS011;13887;57.196;-2.100;2022-11-11T01:04:28;12.70;;;12.30;;
22068;SDS011;13887;57.196;-2.100;2022-11-11T01:07:14;13.23;;;12.83;;
22068;SDS011;13887;57.196;-2.100;2022-11-11T01:09:59;12.83;;;12.43;;
22068;SDS011;13887;57.196;-2.100;2022-11-11T01:12:45;12.77;;;12.37;;
22068;SDS011;13887;57.196;-2.100;2022-11-11T01:15:31;12.93;;;12.53;;
22068;SDS011;13887;57.196;-2.100;2022-11-11T01:18:21;12.83;;;12.43;;
22068;SDS011;13887;57.196;-2.100;2022-11-11T01:21:10;12.70;;;12.30;;
22068;SDS011;13887;57.196;-2.100;2022-11-11T01:23:58;13.00;;;12.60;;
22068;SDS011;13887;57.196;-2.100;2022-11-11T01:26:43;12.57;;;12.17;;
22068;SDS011;13887;57.196;-2.100;2022-11-11T01:29:29;12.57;;;12.17;;
22068;SDS011;13887;57.196;-2.100;2022-11-11T01:32:14;12.50;;;12.10;;
22068;SDS011;13887;57.196;-2.100;2022-11-11T01:34:59;12.50;;;12.10;;
22068;SDS011;13887;57.196;-2.100;2022-11-11T01:37:45;12.57;;;12.17;;
22068;SDS011;13887;57.196;-2.100;2022-11-11T01:40:30;13.10;;;12.70;;
22068;SDS011;13887;57.196;-2.100;2022-11-11T01:43:17;13.20;;;12.80;;
22068;SDS011;13887;57.196;-2.100;2022-11-11T01:46:08;13.17;;;12.77;;
22068;SDS011;13887;57.196;-2.100;2022-11-11T01:55:08;12.73;;;12.33;;
22068;SDS011;13887;57.196;-2.100;2022-11-11T01:58:05;12.97;;;12.57;;
22068;SDS011;13887;57.196;-2.100;2022-11-11T02:00:53;12.87;;;12.47;;
22068;SDS011;13887;57.196;-2.100;2022-11-11T02:03:40;12.60;;;12.20;;
22068;SDS011;13887;57.196;-2.100;2022-11-11T02:06:47;12.97;;;12.57;;
22068;SDS011;13887;57.196;-2.100;2022-11-11T02:09:35;13.23;;;12.83;;
22068;SDS011;13887;57.196;-2.100;2022-11-11T02:12:25;12.87;;;12.47;;
22068;SDS011;13887;57.196;-2.100;2022-11-11T02:15:29;13.00;;;12.60;;
22068;SDS011;13887;57.196;-2.100;2022-11-11T02:18:14;13.20;;;12.80;;
22068;SDS011;13887;57.196;-2.100;2022-11-11T02:21:00;13.27;;;12.87;;
22068;SDS011;13887;57.196;-2.100;2022-11-11T02:23:58;13.00;;;12.60;;
22068;SDS011;13887;57.196;-2.100;2022-11-11T02:26:48;13.30;;;12.90;;
22068;SDS011;13887;57.196;-2.100;2022-11-11T02:29:42;13.37;;;12.97;;
22068;SDS011;13887;57.196;-2.100;2022-11-11T02:32:30;13.13;;;12.73;;
22068;SDS011;13887;57.196;-2.100;2022-11-11T02:35:21;13.03;;;12.63;;
22068;SDS011;13887;57.196;-2.100;2022-11-11T02:38:07;13.23;;;12.83;;
22068;SDS011;13887;57.196;-2.100;2022-11-11T02:40:57;13.07;;;12.67;;
22068;SDS011;13887;57.196;-2.100;2022-11-11T02:44:01;13.27;;;12.87;;
22068;SDS011;13887;57.196;-2.100;2022-11-11T02:46:47;13.33;;;12.93;;
22068;SDS011;13887;57.196;-2.100;2022-11-11T02:49:32;13.33;;;12.93;;
22068;SDS011;13887;57.196;-2.100;2022-11-11T02:52:17;13.03;;;12.63;;
22068;SDS011;13887;57.196;-2.100;2022-11-11T02:55:03;12.73;;;12.33;;
22068;SDS011;13887;57.196;-2.100;2022-11-11T02:57:50;12.73;;;12.33;;
22068;SDS011;13887;57.196;-2.100;2022-11-11T03:00:36;12.53;;;12.13;;
22068;SDS011;13887;57.196;-2.100;2022-11-11T03:03:22;12.73;;;12.33;;
22068;SDS011;13887;57.196;-2.100;2022-11-11T03:06:08;13.03;;;12.63;;
22068;SDS011;13887;57.196;-2.100;2022-11-11T03:08:54;12.97;;;12.57;;
22068;SDS011;13887;57.196;-2.100;2022-11-11T03:11:40;13.00;;;12.60;;
22068;SDS011;13887;57.196;-2.100;2022-11-11T03:14:25;13.23;;;12.83;;
22068;SDS011;13887;57.196;-2.100;2022-11-11T03:17:11;13.23;;;12.83;;
22068;SDS011;13887;57.196;-2.100;2022-11-11T03:20:16;12.80;;;12.40;;
22068;SDS011;13887;57.196;-2.100;2022-11-11T03:23:21;12.93;;;12.53;;
22068;SDS011;13887;57.196;-2.100;2022-11-11T03:26:07;12.97;;;12.57;;
22068;SDS011;13887;57.196;-2.100;2022-11-11T03:28:53;13.40;;;13.00;;
22068;SDS011;13887;57.196;-2.100;2022-11-11T03:31:38;13.07;;;12.67;;
22068;SDS011;13887;57.196;-2.100;2022-11-11T03:34:24;12.77;;;12.37;;
22068;SDS011;13887;57.196;-2.100;2022-11-11T03:37:10;12.87;;;12.47;;
22068;SDS011;13887;57.196;-2.100;2022-11-11T03:40:14;13.07;;;12.67;;
22068;SDS011;13887;57.196;-2.100;2022-11-11T03:43:00;13.03;;;12.63;;
22068;SDS011;13887;57.196;-2.100;2022-11-11T03:45:49;13.00;;;12.60;;
22068;SDS011;13887;57.196;-2.100;2022-11-11T03:48:41;13.23;;;12.83;;
22068;SDS011;13887;57.196;-2.100;2022-11-11T03:51:26;13.33;;;12.93;;
22068;SDS011;13887;57.196;-2.100;2022-11-11T03:54:11;13.07;;;12.67;;
22068;SDS011;13887;57.196;-2.100;2022-11-11T03:56:57;13.10;;;12.70;;
22068;SDS011;13887;57.196;-2.100;2022-11-11T04:00:02;13.40;;;13.00;;
22068;SDS011;13887;57.196;-2.100;2022-11-11T04:03:01;13.07;;;12.67;;
22068;SDS011;13887;57.196;-2.100;2022-11-11T04:06:15;12.83;;;12.43;;
22068;SDS011;13887;57.196;-2.100;2022-11-11T04:09:19;12.87;;;12.47;;
22068;SDS011;13887;57.196;-2.100;2022-11-11T04:12:28;13.30;;;12.90;;
22068;SDS011;13887;57.196;-2.100;2022-11-11T04:15:15;12.97;;;12.57;;
22068;SDS011;13887;57.196;-2.100;2022-11-11T04:18:19;13.10;;;12.70;;
22068;SDS011;13887;57.196;-2.100;2022-11-11T04:21:24;13.17;;;12.77;;
22068;SDS011;13887;57.196;-2.100;2022-11-11T04:24:28;13.60;;;13.13;;
22068;SDS011;13887;57.196;-2.100;2022-11-11T04:27:32;13.37;;;12.97;;
22068;SDS011;13887;57.196;-2.100;2022-11-11T04:30:18;13.23;;;12.83;;
22068;SDS011;13887;57.196;-2.100;2022-11-11T04:33:03;13.30;;;12.90;;
22068;SDS011;13887;57.196;-2.100;2022-11-11T04:35:49;13.17;;;12.77;;
22068;SDS011;13887;57.196;-2.100;2022-11-11T04:38:34;12.93;;;12.53;;
22068;SDS011;13887;57.196;-2.100;2022-11-11T04:41:38;13.27;;;12.87;;
22068;SDS011;13887;57.196;-2.100;2022-11-11T04:44:44;13.27;;;12.87;;
22068;SDS011;13887;57.196;-2.100;2022-11-11T04:47:54;13.07;;;12.67;;
22068;SDS011;13887;57.196;-2.100;2022-11-11T04:50:41;12.87;;;12.47;;
22068;SDS011;13887;57.196;-2.100;2022-11-11T04:53:27;13.30;;;12.90;;
22068;SDS011;13887;57.196;-2.100;2022-11-11T04:56:14;13.27;;;12.87;;
22068;SDS011;13887;57.196;-2.100;2022-11-11T04:59:18;13.40;;;13.00;;
22068;SDS011;13887;57.196;-2.100;2022-11-11T05:02:04;13.23;;;12.83;;
22068;SDS011;13887;57.196;-2.100;2022-11-11T05:05:08;13.60;;;13.13;;
22068;SDS011;13887;57.196;-2.100;2022-11-11T05:07:53;13.43;;;13.03;;
22068;SDS011;13887;57.196;-2.100;2022-11-11T05:10:57;12.93;;;12.53;;
22068;SDS011;13887;57.196;-2.100;2022-11-11T05:13:43;13.03;;;12.63;;
22068;SDS011;13887;57.196;-2.100;2022-11-11T05:16:52;13.50;;;13.10;;
22068;SDS011;13887;57.196;-2.100;2022-11-11T05:19:58;13.47;;;13.07;;
22068;SDS011;13887;57.196;-2.100;2022-11-11T05:23:02;13.83;;;13.33;;
22068;SDS011;13887;57.196;-2.100;2022-11-11T05:25:47;13.40;;;13.00;;
22068;SDS011;13887;57.196;-2.100;2022-11-11T05:28:32;13.10;;;12.70;;
22068;SDS011;13887;57.196;-2.100;2022-11-11T05:31:17;13.80;;;13.30;;
22068;SDS011;13887;57.196;-2.100;2022-11-11T05:34:03;13.60;;;13.10;;
22068;SDS011;13887;57.196;-2.100;2022-11-11T05:36:48;13.20;;;12.80;;
22068;SDS011;13887;57.196;-2.100;2022-11-11T05:39:34;13.00;;;12.60;;
22068;SDS011;13887;57.196;-2.100;2022-11-11T05:42:19;13.43;;;13.03;;
22068;SDS011;13887;57.196;-2.100;2022-11-11T05:45:05;13.00;;;12.60;;
22068;SDS011;13887;57.196;-2.100;2022-11-11T05:47:50;13.07;;;12.67;;
22068;SDS011;13887;57.196;-2.100;2022-11-11T05:50:35;13.30;;;12.90;;
22068;SDS011;13887;57.196;-2.100;2022-11-11T05:53:25;13.27;;;12.87;;
22068;SDS011;13887;57.196;-2.100;2022-11-11T05:56:11;13.97;;;13.47;;
22068;SDS011;13887;57.196;-2.100;2022-11-11T05:58:56;13.83;;;13.33;;
22068;SDS011;13887;57.196;-2.100;2022-11-11T06:01:42;13.97;;;13.47;;
22068;SDS011;13887;57.196;-2.100;2022-11-11T06:04:28;14.00;;;13.50;;
22068;SDS011;13887;57.196;-2.100;2022-11-11T06:07:13;14.20;;;13.70;;
22068;SDS011;13887;57.196;-2.100;2022-11-11T06:09:58;14.27;;;13.77;;
22068;SDS011;13887;57.196;-2.100;2022-11-11T06:13:04;13.63;;;13.13;;
22068;SDS011;13887;57.196;-2.100;2022-11-11T06:15:51;14.10;;;13.60;;
22068;SDS011;13887;57.196;-2.100;2022-11-11T06:18:36;13.77;;;13.27;;
22068;SDS011;13887;57.196;-2.100;2022-11-11T06:21:22;13.83;;;13.33;;
22068;SDS011;13887;57.196;-2.100;2022-11-11T06:24:07;13.70;;;13.20;;
22068;SDS011;13887;57.196;-2.100;2022-11-11T06:26:56;14.13;;;13.63;;
22068;SDS011;13887;57.196;-2.100;2022-11-11T06:29:41;13.87;;;13.37;;
22068;SDS011;13887;57.196;-2.100;2022-11-11T06:32:27;14.07;;;13.57;;
22068;SDS011;13887;57.196;-2.100;2022-11-11T06:35:12;13.80;;;13.30;;
22068;SDS011;13887;57.196;-2.100;2022-11-11T06:37:58;13.53;;;13.07;;
22068;SDS011;13887;57.196;-2.100;2022-11-11T06:40:43;13.80;;;13.30;;
22068;SDS011;13887;57.196;-2.100;2022-11-11T06:43:28;13.30;;;12.90;;
22068;SDS011;13887;57.196;-2.100;2022-11-11T06:46:24;14.27;;;13.77;;
22068;SDS011;13887;57.196;-2.100;2022-11-11T06:49:10;13.20;;;12.80;;
22068;SDS011;13887;57.196;-2.100;2022-11-11T06:51:56;13.17;;;12.77;;
22068;SDS011;13887;57.196;-2.100;2022-11-11T06:54:41;12.97;;;12.57;;
22068;SDS011;13887;57.196;-2.100;2022-11-11T06:57:27;13.77;;;13.27;;
22068;SDS011;13887;57.196;-2.100;2022-11-11T07:00:12;14.00;;;13.50;;
22068;SDS011;13887;57.196;-2.100;2022-11-11T07:02:58;14.17;;;13.67;;
22068;SDS011;13887;57.196;-2.100;2022-11-11T07:05:44;14.20;;;13.70;;
22068;SDS011;13887;57.196;-2.100;2022-11-11T07:08:30;13.33;;;12.93;;
22068;SDS011;13887;57.196;-2.100;2022-11-11T07:11:16;13.80;;;13.30;;
22068;SDS011;13887;57.196;-2.100;2022-11-11T07:14:03;13.90;;;13.40;;
22068;SDS011;13887;57.196;-2.100;2022-11-11T07:16:48;13.53;;;13.03;;
22068;SDS011;13887;57.196;-2.100;2022-11-11T07:19:33;13.73;;;13.23;;
22068;SDS011;13887;57.196;-2.100;2022-11-11T07:22:19;13.87;;;13.37;;
22068;SDS011;13887;57.196;-2.100;2022-11-11T07:25:04;13.97;;;13.47;;
22068;SDS011;13887;57.196;-2.100;2022-11-11T07:27:50;13.73;;;13.23;;
22068;SDS011;13887;57.196;-2.100;2022-11-11T07:30:43;13.63;;;13.13;;
22068;SDS011;13887;57.196;-2.100;2022-11-11T07:33:28;13.90;;;13.40;;
22068;SDS011;13887;57.196;-2.100;2022-11-11T07:36:13;13.27;;;12.87;;
22068;SDS011;13887;57.196;-2.100;2022-11-11T07:38:59;13.73;;;13.23;;
22068;SDS011;13887;57.196;-2.100;2022-11-11T07:41:50;13.50;;;13.03;;
22068;SDS011;13887;57.196;-2.100;2022-11-11T07:44:35;13.03;;;12.63;;
22068;SDS011;13887;57.196;-2.100;2022-11-11T07:47:20;13.23;;;12.83;;
22068;SDS011;13887;57.196;-2.100;2022-11-11T07:50:06;13.37;;;12.93;;
22068;SDS011;13887;57.196;-2.100;2022-11-11T07:52:52;13.00;;;12.60;;
22068;SDS011;13887;57.196;-2.100;2022-11-11T07:55:37;13.73;;;13.23;;
22068;SDS011;13887;57.196;-2.100;2022-11-11T07:58:23;13.40;;;13.00;;
22068;SDS011;13887;57.196;-2.100;2022-11-11T08:01:09;12.87;;;12.47;;
22068;SDS011;13887;57.196;-2.100;2022-11-11T08:03:54;14.17;;;13.67;;
22068;SDS011;13887;57.196;-2.100;2022-11-11T08:06:40;13.90;;;13.40;;
22068;SDS011;13887;57.196;-2.100;2022-11-11T08:09:25;13.97;;;13.47;;
22068;SDS011;13887;57.196;-2.100;2022-11-11T08:12:10;13.47;;;13.00;;
22068;SDS011;13887;57.196;-2.100;2022-11-11T08:15:14;13.20;;;12.80;;
22068;SDS011;13887;57.196;-2.100;2022-11-11T08:18:00;13.27;;;12.87;;
22068;SDS011;13887;57.196;-2.100;2022-11-11T08:20:46;13.70;;;13.20;;
22068;SDS011;13887;57.196;-2.100;2022-11-11T08:23:38;13.23;;;12.83;;
22068;SDS011;13887;57.196;-2.100;2022-11-11T08:26:43;13.70;;;13.20;;
22068;SDS011;13887;57.196;-2.100;2022-11-11T08:29:29;13.40;;;13.00;;
22068;SDS011;13887;57.196;-2.100;2022-11-11T08:32:14;13.53;;;13.03;;
22068;SDS011;13887;57.196;-2.100;2022-11-11T08:35:00;13.30;;;12.90;;
22068;SDS011;13887;57.196;-2.100;2022-11-11T08:37:45;13.23;;;12.83;;
22068;SDS011;13887;57.196;-2.100;2022-11-11T08:40:31;13.67;;;13.17;;
22068;SDS011;13887;57.196;-2.100;2022-11-11T08:43:16;13.10;;;12.70;;
22068;SDS011;13887;57.196;-2.100;2022-11-11T08:46:03;13.03;;;12.63;;
22068;SDS011;13887;57.196;-2.100;2022-11-11T08:48:49;13.37;;;12.97;;
22068;SDS011;13887;57.196;-2.100;2022-11-11T08:51:34;13.80;;;13.30;;
22068;SDS011;13887;57.196;-2.100;2022-11-11T08:54:28;13.97;;;13.47;;
22068;SDS011;13887;57.196;-2.100;2022-11-11T08:57:13;13.93;;;13.43;;
22068;SDS011;13887;57.196;-2.100;2022-11-11T08:59:59;13.90;;;13.40;;
22068;SDS011;13887;57.196;-2.100;2022-11-11T09:02:44;13.50;;;13.00;;
22068;SDS011;13887;57.196;-2.100;2022-11-11T09:05:30;12.87;;;12.47;;
22068;SDS011;13887;57.196;-2.100;2022-11-11T09:08:15;12.83;;;12.43;;
22068;SDS011;13887;57.196;-2.100;2022-11-11T09:11:01;13.00;;;12.60;;
22068;SDS011;13887;57.196;-2.100;2022-11-11T09:13:47;13.10;;;12.70;;
22068;SDS011;13887;57.196;-2.100;2022-11-11T09:16:32;13.10;;;12.70;;
22068;SDS011;13887;57.196;-2.100;2022-11-11T09:19:18;13.10;;;12.70;;
22068;SDS011;13887;57.196;-2.100;2022-11-11T09:22:03;13.80;;;13.30;;
22068;SDS011;13887;57.196;-2.100;2022-11-11T09:24:49;13.70;;;13.20;;
22068;SDS011;13887;57.196;-2.100;2022-11-11T09:27:35;13.23;;;12.83;;
22068;SDS011;13887;57.196;-2.100;2022-11-11T09:30:20;13.40;;;13.00;;
22068;SDS011;13887;57.196;-2.100;2022-11-11T09:33:05;13.80;;;13.30;;
22068;SDS011;13887;57.196;-2.100;2022-11-11T09:35:51;13.70;;;13.20;;
22068;SDS011;13887;57.196;-2.100;2022-11-11T09:38:36;13.60;;;13.10;;
22068;SDS011;13887;57.196;-2.100;2022-11-11T09:51:29;14.17;;;13.67;;
22068;SDS011;13887;57.196;-2.100;2022-11-11T09:54:41;13.70;;;13.20;;
22068;SDS011;13887;57.196;-2.100;2022-11-11T09:57:56;13.67;;;13.17;;
22068;SDS011;13887;57.196;-2.100;2022-11-11T10:00:46;13.83;;;13.33;;
22068;SDS011;13887;57.196;-2.100;2022-11-11T10:03:40;13.80;;;13.30;;
22068;SDS011;13887;57.196;-2.100;2022-11-11T10:06:30;14.00;;;13.50;;
22068;SDS011;13887;57.196;-2.100;2022-11-11T10:09:37;13.77;;;13.27;;
22068;SDS011;13887;57.196;-2.100;2022-11-11T10:12:25;13.27;;;12.87;;
22068;SDS011;13887;57.196;-2.100;2022-11-11T10:15:29;13.50;;;13.10;;
22068;SDS011;13887;57.196;-2.100;2022-11-11T10:18:33;13.73;;;13.23;;
22068;SDS011;13887;57.196;-2.100;2022-11-11T10:21:34;13.80;;;13.30;;
22068;SDS011;13887;57.196;-2.100;2022-11-11T10:24:46;13.90;;;13.40;;
22068;SDS011;13887;57.196;-2.100;2022-11-11T10:28:02;13.60;;;13.13;;
22068;SDS011;13887;57.196;-2.100;2022-11-11T10:30:48;13.87;;;13.37;;
22068;SDS011;13887;57.196;-2.100;2022-11-11T10:33:56;13.50;;;13.00;;
22068;SDS011;13887;57.196;-2.100;2022-11-11T10:36:47;13.47;;;13.00;;
22068;SDS011;13887;57.196;-2.100;2022-11-11T10:42:39;13.50;;;13.00;;
22068;SDS011;13887;57.196;-2.100;2022-11-11T10:45:35;13.53;;;13.03;;
22068;SDS011;13887;57.196;-2.100;2022-11-11T10:54:40;13.10;;;12.70;;
22068;SDS011;13887;57.196;-2.100;2022-11-11T10:57:51;13.43;;;12.97;;
22068;SDS011;13887;57.196;-2.100;2022-11-11T11:00:44;13.23;;;12.83;;
22068;SDS011;13887;57.196;-2.100;2022-11-11T11:03:34;13.13;;;12.73;;
22068;SDS011;13887;57.196;-2.100;2022-11-11T11:06:24;13.10;;;12.70;;
22068;SDS011;13887;57.196;-2.100;2022-11-11T11:09:19;12.90;;;12.50;;
22068;SDS011;13887;57.196;-2.100;2022-11-11T11:12:22;13.37;;;12.87;;
22068;SDS011;13887;57.196;-2.100;2022-11-11T11:15:15;13.10;;;12.70;;
22068;SDS011;13887;57.196;-2.100;2022-11-11T11:18:05;13.20;;;12.80;;
22068;SDS011;13887;57.196;-2.100;2022-11-11T11:20:54;13.20;;;12.80;;
22068;SDS011;13887;57.196;-2.100;2022-11-11T11:23:41;13.00;;;12.60;;
22068;SDS011;13887;57.196;-2.100;2022-11-11T11:26:30;13.03;;;12.63;;
22068;SDS011;13887;57.196;-2.100;2022-11-11T11:29:38;12.97;;;12.57;;
22068;SDS011;13887;57.196;-2.100;2022-11-11T11:32:27;12.90;;;12.50;;
22068;SDS011;13887;57.196;-2.100;2022-11-11T11:38:38;13.03;;;12.63;;
22068;SDS011;13887;57.196;-2.100;2022-11-11T11:41:35;13.00;;;12.60;;
22068;SDS011;13887;57.196;-2.100;2022-11-11T11:53:19;12.93;;;12.53;;
22068;SDS011;13887;57.196;-2.100;2022-11-11T12:02:15;13.20;;;12.80;;
22068;SDS011;13887;57.196;-2.100;2022-11-11T12:05:32;13.70;;;13.20;;
22068;SDS011;13887;57.196;-2.100;2022-11-11T12:08:30;13.07;;;12.67;;
22068;SDS011;13887;57.196;-2.100;2022-11-11T12:11:33;13.13;;;12.73;;
22068;SDS011;13887;57.196;-2.100;2022-11-11T12:14:29;13.03;;;12.63;;
22068;SDS011;13887;57.196;-2.100;2022-11-11T12:20:28;13.30;;;12.90;;
22068;SDS011;13887;57.196;-2.100;2022-11-11T12:32:42;13.03;;;12.63;;
22068;SDS011;13887;57.196;-2.100;2022-11-11T13:12:20;13.00;;;12.60;;
22068;SDS011;13887;57.196;-2.100;2022-11-11T13:15:36;13.17;;;12.77;;
22068;SDS011;13887;57.196;-2.100;2022-11-11T13:18:27;13.27;;;12.87;;
22068;SDS011;13887;57.196;-2.100;2022-11-11T13:21:31;12.90;;;12.50;;
22068;SDS011;13887;57.196;-2.100;2022-11-11T13:24:28;13.27;;;12.87;;
22068;SDS011;13887;57.196;-2.100;2022-11-11T13:32:58;13.10;;;12.70;;
22068;SDS011;13887;57.196;-2.100;2022-11-11T13:38:45;13.67;;;13.17;;
22068;SDS011;13887;57.196;-2.100;2022-11-11T13:41:36;13.57;;;13.07;;
22068;SDS011;13887;57.196;-2.100;2022-11-11T13:44:26;13.70;;;13.20;;
22068;SDS011;13887;57.196;-2.100;2022-11-11T13:47:49;13.67;;;13.17;;
22068;SDS011;13887;57.196;-2.100;2022-11-11T13:50:35;13.27;;;12.87;;
22068;SDS011;13887;57.196;-2.100;2022-11-11T13:53:24;13.67;;;13.17;;
22068;SDS011;13887;57.196;-2.100;2022-11-11T13:56:21;13.77;;;13.27;;
22068;SDS011;13887;57.196;-2.100;2022-11-11T13:59:23;13.83;;;13.33;;
22068;SDS011;13887;57.196;-2.100;2022-11-11T14:07:50;14.07;;;13.57;;
22068;SDS011;13887;57.196;-2.100;2022-11-11T14:28:22;14.20;;;13.70;;
22068;SDS011;13887;57.196;-2.100;2022-11-11T14:37:08;13.77;;;13.27;;
22068;SDS011;13887;57.196;-2.100;2022-11-11T14:40:09;13.90;;;13.40;;
22068;SDS011;13887;57.196;-2.100;2022-11-11T14:42:57;13.60;;;13.10;;
22068;SDS011;13887;57.196;-2.100;2022-11-11T14:48:50;13.73;;;13.23;;
22068;SDS011;13887;57.196;-2.100;2022-11-11T14:51:52;13.70;;;13.20;;
22068;SDS011;13887;57.196;-2.100;2022-11-11T14:54:50;13.73;;;13.23;;
22068;SDS011;13887;57.196;-2.100;2022-11-11T14:57:50;14.10;;;13.60;;
22068;SDS011;13887;57.196;-2.100;2022-11-11T15:00:43;13.87;;;13.37;;
22068;SDS011;13887;57.196;-2.100;2022-11-11T15:03:39;13.90;;;13.40;;
22068;SDS011;13887;57.196;-2.100;2022-11-11T15:06:51;13.73;;;13.23;;
22068;SDS011;13887;57.196;-2.100;2022-11-11T15:15:59;13.97;;;13.47;;
22068;SDS011;13887;57.196;-2.100;2022-11-11T15:22:03;13.27;;;12.87;;
22068;SDS011;13887;57.196;-2.100;2022-11-11T15:37:53;13.27;;;12.87;;
22068;SDS011;13887;57.196;-2.100;2022-11-11T15:40:52;13.40;;;13.00;;
22068;SDS011;13887;57.196;-2.100;2022-11-11T15:43:43;13.03;;;12.63;;
22068;SDS011;13887;57.196;-2.100;2022-11-11T15:46:29;13.47;;;13.07;;
22068;SDS011;13887;57.196;-2.100;2022-11-11T15:49:35;13.40;;;13.00;;
22068;SDS011;13887;57.196;-2.100;2022-11-11T15:52:23;13.77;;;13.27;;
22068;SDS011;13887;57.196;-2.100;2022-11-11T15:58:16;13.10;;;12.70;;
22068;SDS011;13887;57.196;-2.100;2022-11-11T16:01:09;14.00;;;13.50;;
22068;SDS011;13887;57.196;-2.100;2022-11-11T16:03:56;13.33;;;12.93;;
22068;SDS011;13887;57.196;-2.100;2022-11-11T16:06:42;14.23;;;13.73;;
22068;SDS011;13887;57.196;-2.100;2022-11-11T16:09:29;13.50;;;13.03;;
22068;SDS011;13887;57.196;-2.100;2022-11-11T16:12:23;13.90;;;13.40;;
22068;SDS011;13887;57.196;-2.100;2022-11-11T16:15:18;13.80;;;13.30;;
22068;SDS011;13887;57.196;-2.100;2022-11-11T16:18:19;13.03;;;12.63;;
22068;SDS011;13887;57.196;-2.100;2022-11-11T16:21:09;13.20;;;12.80;;
22068;SDS011;13887;57.196;-2.100;2022-11-11T16:23:56;13.07;;;12.67;;
22068;SDS011;13887;57.196;-2.100;2022-11-11T16:26:45;13.50;;;13.10;;
22068;SDS011;13887;57.196;-2.100;2022-11-11T16:29:37;13.20;;;12.80;;
22068;SDS011;13887;57.196;-2.100;2022-11-11T16:38:29;13.10;;;12.70;;
22068;SDS011;13887;57.196;-2.100;2022-11-11T16:41:26;13.40;;;13.00;;
22068;SDS011;13887;57.196;-2.100;2022-11-11T16:44:32;12.97;;;12.57;;
22068;SDS011;13887;57.196;-2.100;2022-11-11T16:47:44;13.53;;;13.07;;
22068;SDS011;13887;57.196;-2.100;2022-11-11T16:50:31;13.43;;;13.03;;
22068;SDS011;13887;57.196;-2.100;2022-11-11T16:53:27;12.87;;;12.47;;
22068;SDS011;13887;57.196;-2.100;2022-11-11T16:56:22;13.10;;;12.70;;
22068;SDS011;13887;57.196;-2.100;2022-11-11T16:59:12;12.87;;;12.47;;
22068;SDS011;13887;57.196;-2.100;2022-11-11T17:02:01;13.40;;;13.00;;
22068;SDS011;13887;57.196;-2.100;2022-11-11T17:04:47;12.87;;;12.47;;
22068;SDS011;13887;57.196;-2.100;2022-11-11T17:07:35;13.10;;;12.70;;
22068;SDS011;13887;57.196;-2.100;2022-11-11T17:10:22;12.80;;;12.40;;
22068;SDS011;13887;57.196;-2.100;2022-11-11T17:13:10;12.90;;;12.50;;
22068;SDS011;13887;57.196;-2.100;2022-11-11T17:15:56;12.70;;;12.30;;
22068;SDS011;13887;57.196;-2.100;2022-11-11T17:18:44;13.13;;;12.73;;
22068;SDS011;13887;57.196;-2.100;2022-11-11T17:21:29;13.43;;;13.00;;
22068;SDS011;13887;57.196;-2.100;2022-11-11T17:24:15;12.93;;;12.53;;
22068;SDS011;13887;57.196;-2.100;2022-11-11T17:27:00;12.73;;;12.33;;
22068;SDS011;13887;57.196;-2.100;2022-11-11T17:29:45;12.83;;;12.43;;
22068;SDS011;13887;57.196;-2.100;2022-11-11T17:32:32;13.60;;;13.00;;
22068;SDS011;13887;57.196;-2.100;2022-11-11T17:35:17;13.30;;;12.90;;
22068;SDS011;13887;57.196;-2.100;2022-11-11T17:38:02;13.17;;;12.77;;
22068;SDS011;13887;57.196;-2.100;2022-11-11T17:40:48;13.30;;;12.90;;
22068;SDS011;13887;57.196;-2.100;2022-11-11T17:43:34;12.97;;;12.57;;
22068;SDS011;13887;57.196;-2.100;2022-11-11T17:46:20;13.10;;;12.70;;
22068;SDS011;13887;57.196;-2.100;2022-11-11T17:49:05;12.97;;;12.57;;
22068;SDS011;13887;57.196;-2.100;2022-11-11T17:51:51;13.10;;;12.70;;
22068;SDS011;13887;57.196;-2.100;2022-11-11T17:54:36;13.47;;;13.00;;
22068;SDS011;13887;57.196;-2.100;2022-11-11T17:57:22;13.43;;;13.00;;
22068;SDS011;13887;57.196;-2.100;2022-11-11T18:00:07;13.30;;;12.90;;
22068;SDS011;13887;57.196;-2.100;2022-11-11T18:02:54;13.70;;;13.20;;
22068;SDS011;13887;57.196;-2.100;2022-11-11T18:05:40;13.90;;;13.40;;
22068;SDS011;13887;57.196;-2.100;2022-11-11T18:08:25;13.80;;;13.30;;
22068;SDS011;13887;57.196;-2.100;2022-11-11T18:11:12;13.27;;;12.87;;
22068;SDS011;13887;57.196;-2.100;2022-11-11T18:13:57;13.93;;;13.43;;
22068;SDS011;13887;57.196;-2.100;2022-11-11T18:16:43;14.23;;;13.73;;
22068;SDS011;13887;57.196;-2.100;2022-11-11T18:19:29;13.97;;;13.47;;
22068;SDS011;13887;57.196;-2.100;2022-11-11T18:22:14;13.77;;;13.27;;
22068;SDS011;13887;57.196;-2.100;2022-11-11T18:25:00;13.07;;;12.67;;
22068;SDS011;13887;57.196;-2.100;2022-11-11T18:27:45;13.50;;;13.00;;
22068;SDS011;13887;57.196;-2.100;2022-11-11T18:30:30;13.40;;;12.97;;
22068;SDS011;13887;57.196;-2.100;2022-11-11T18:33:16;13.20;;;12.80;;
22068;SDS011;13887;57.196;-2.100;2022-11-11T18:36:05;13.50;;;13.00;;
22068;SDS011;13887;57.196;-2.100;2022-11-11T18:38:53;13.30;;;12.90;;
22068;SDS011;13887;57.196;-2.100;2022-11-11T18:41:39;12.90;;;12.50;;
22068;SDS011;13887;57.196;-2.100;2022-11-11T18:44:25;12.80;;;12.40;;
22068;SDS011;13887;57.196;-2.100;2022-11-11T18:47:10;12.57;;;12.17;;
22068;SDS011;13887;57.196;-2.100;2022-11-11T18:49:55;12.67;;;12.27;;
22068;SDS011;13887;57.196;-2.100;2022-11-11T18:52:41;13.10;;;12.70;;
22068;SDS011;13887;57.196;-2.100;2022-11-11T18:55:26;13.10;;;12.70;;
22068;SDS011;13887;57.196;-2.100;2022-11-11T18:58:11;12.90;;;12.50;;
22068;SDS011;13887;57.196;-2.100;2022-11-11T19:01:10;12.60;;;12.20;;
22068;SDS011;13887;57.196;-2.100;2022-11-11T19:04:03;12.60;;;12.20;;
22068;SDS011;13887;57.196;-2.100;2022-11-11T19:06:51;12.20;;;11.80;;
22068;SDS011;13887;57.196;-2.100;2022-11-11T19:09:36;12.53;;;12.13;;